East Bangor, Pennsylvania
Current Conditions -  °F | °C
As of 2:51 PM on Monday 24 Nov 2014 (Local Time) from KABE Reporting Station
Broken Clouds Broken Clouds  
Wind Chill: 68°   Ceiling: 3400
Heat Index: 68°   Visibility: 10mi
Dew Point: 53°   Wind: 23mph
Humidity: 59%   Direction: 190°S
Pressure: 29.57"   Gusts: 29mph
Location:  40.8463°N, 75.1731°W
Report Text: KABE 241951Z 19020G25KT 10SM BKN034 20/12 A2957 RMK AO2 PK WND 19029/1910 SLP010 T02000117
Loading
Personal Weather Stations






























Interactive Weather Map New forecast layout! Learn more

10-Day Weather Forecast

Advertisements
Track Severe Weather on mobile